Time;durP1;ratioP1;P1;durP2;ratioP2;P2;SDS_P1;SDS_P2;PMS_P1;PMS_P2;Temp;Humidity;BMP_temperature;BMP_pressure;BME280_temperature;BME280_humidity;BME280_pressure;Samples;Min_cycle;Max_cycle;Signal;HPM_P1;HPM_P2
2022/10/19 00:01:01;;;;;;;14.50;7.78;;;;;;;17.96;97.34;101803.44;5094975;28;19931;-60
2022/10/19 00:03:28;;;;;;;13.48;8.27;;;;;;;18.10;96.49;101799.59;5094797;28;20044;-62
2022/10/19 00:05:55;;;;;;;11.48;7.47;;;;;;;17.89;96.88;101797.56;5086285;28;20047;-62
2022/10/19 00:08:23;;;;;;;10.57;7.63;;;;;;;17.92;97.26;101791.31;5094541;28;20491;-61
2022/10/19 00:10:50;;;;;;;13.70;7.15;;;;;;;18.06;96.82;101785.50;5092495;28;20058;-62
2022/10/19 00:13:17;;;;;;;11.52;7.90;;;;;;;18.04;96.50;101790.59;5095704;28;20062;-62
2022/10/19 00:15:47;;;;;;;15.02;7.10;;;;;;;18.07;95.82;101792.72;5094317;28;20040;-61
2022/10/19 00:18:14;;;;;;;10.77;7.50;;;;;;;17.96;96.01;101786.72;5082733;28;20052;-62
2022/10/19 00:20:41;;;;;;;17.23;7.35;;;;;;;18.07;95.83;101787.13;5094264;28;20055;-63
2022/10/19 00:23:08;;;;;;;11.20;7.13;;;;;;;18.06;95.65;101784.69;5076639;28;20048;-61
2022/10/19 00:25:37;;;;;;;10.45;7.32;;;;;;;18.08;95.12;101782.38;5087834;28;20071;-60
2022/10/19 00:28:04;;;;;;;12.25;7.85;;;;;;;18.03;95.11;101779.78;5094969;28;20055;-61
2022/10/19 00:30:35;;;;;;;11.93;7.70;;;;;;;17.87;95.79;101777.56;5093877;28;20064;-61
2022/10/19 00:33:03;;;;;;;10.70;7.07;;;;;;;17.91;96.09;101770.19;5093883;28;20505;-62
2022/10/19 00:35:30;;;;;;;13.63;8.13;;;;;;;17.93;95.76;101770.66;5092647;28;20043;-62
2022/10/19 00:37:58;;;;;;;11.77;7.78;;;;;;;17.81;96.22;101766.97;5094536;28;20048;-61
2022/10/19 00:40:25;;;;;;;12.95;7.25;;;;;;;17.88;96.53;101753.31;5091910;28;20063;-61
2022/10/19 00:42:55;;;;;;;12.45;7.55;;;;;;;17.79;96.41;101742.22;5094356;28;20040;-60
2022/10/19 00:45:23;;;;;;;9.73;7.63;;;;;;;17.67;96.61;101742.13;5084389;28;20464;-61
2022/10/19 00:47:58;;;;;;;11.77;7.68;;;;;;;17.80;97.47;101743.03;5094476;28;20044;-63
2022/10/19 00:50:28;;;;;;;10.15;7.13;;;;;;;17.78;96.79;101743.34;5091969;28;20060;-61
2022/10/19 00:52:56;;;;;;;10.57;7.50;;;;;;;17.76;97.10;101742.06;5079610;28;20068;-60
2022/10/19 00:55:23;;;;;;;11.27;7.75;;;;;;;17.63;97.66;101743.94;5085297;28;20052;-60
2022/10/19 00:57:51;;;;;;;10.38;7.20;;;;;;;17.65;97.63;101738.84;5094496;28;20059;-61
2022/10/19 01:00:18;;;;;;;9.73;7.30;;;;;;;17.52;97.92;101741.88;5093607;28;20060;-61
2022/10/19 01:02:46;;;;;;;10.43;7.40;;;;;;;17.50;98.73;101739.44;5093861;28;20399;-61
2022/10/19 01:05:14;;;;;;;10.02;7.10;;;;;;;17.54;98.92;101726.44;5092399;28;20068;-61
2022/10/19 01:07:41;;;;;;;15.38;7.35;;;;;;;17.53;98.66;101743.50;5074907;28;20535;-61
2022/10/19 01:10:09;;;;;;;11.85;7.05;;;;;;;17.61;98.60;101732.31;5084252;28;20044;-62
2022/10/19 01:12:51;;;;;;;10.57;7.35;;;;;;;17.59;97.89;101739.38;5093884;28;20055;-61
2022/10/19 01:15:21;;;;;;;9.55;6.60;;;;;;;17.72;98.16;101735.53;5082337;28;20115;-62
2022/10/19 01:18:08;;;;;;;12.48;7.20;;;;;;;17.70;96.89;101735.03;5078868;28;20061;-61
2022/10/19 01:20:35;;;;;;;13.98;7.05;;;;;;;17.41;98.59;101740.59;5079336;28;20056;-61
2022/10/19 01:23:30;;;;;;;10.85;7.18;;;;;;;17.47;99.21;101739.28;5082147;28;20056;-61
2022/10/19 01:25:58;;;;;;;16.85;7.30;;;;;;;17.46;98.96;101735.69;5093834;28;20653;-61
2022/10/19 01:28:52;;;;;;;14.75;7.68;;;;;;;17.45;99.48;101731.22;5082950;28;20365;-60
2022/10/19 01:31:29;;;;;;;11.40;7.15;;;;;;;17.30;99.79;101737.34;5095334;28;20059;-61
2022/10/19 01:34:04;;;;;;;14.88;7.68;;;;;;;17.47;99.30;101728.16;5096104;28;20056;-61
2022/10/19 01:36:37;;;;;;;13.13;7.43;;;;;;;17.39;99.29;101727.00;5087456;28;20048;-63
2022/10/19 01:39:05;;;;;;;11.27;7.55;;;;;;;17.35;99.62;101725.19;5094882;28;20056;-62
2022/10/19 01:41:37;;;;;;;10.68;7.57;;;;;;;17.33;99.76;101728.31;5088547;28;20048;-61
2022/10/19 01:44:18;;;;;;;12.95;7.05;;;;;;;17.41;99.13;101721.09;5097696;28;20056;-62
2022/10/19 01:46:49;;;;;;;;;;;;;;;17.48;98.90;101727.81;5096781;28;20055;-61
2022/10/19 01:49:33;;;;;;;10.07;6.97;;;;;;;17.50;98.56;101717.16;5091634;28;19951;-61
2022/10/19 01:52:03;;;;;;;12.88;7.15;;;;;;;17.50;98.38;101706.00;5090756;28;20126;-61
2022/10/19 01:54:35;;;;;;;10.50;6.85;;;;;;;17.47;98.48;101705.84;5095851;28;20131;-61
2022/10/19 01:57:05;;;;;;;16.08;7.47;;;;;;;17.44;98.08;101698.13;5097290;28;20423;-61
2022/10/19 01:59:33;;;;;;;9.82;7.13;;;;;;;17.44;98.36;101698.94;5078618;28;20047;-61
2022/10/19 02:02:01;;;;;;;12.02;7.20;;;;;;;17.44;98.05;101704.50;5095936;28;20048;-61
2022/10/19 02:04:30;;;;;;;15.88;7.05;;;;;;;17.43;98.70;101694.53;5094935;28;20048;-61
2022/10/19 02:06:57;;;;;;;10.43;6.97;;;;;;;17.39;98.72;101688.00;5096110;28;20052;-60
2022/10/19 02:09:25;;;;;;;13.82;7.38;;;;;;;17.40;98.82;101684.03;5086456;28;20063;-63
2022/10/19 02:11:56;;;;;;;10.45;7.22;;;;;;;17.48;98.69;101683.22;5089723;28;20044;-64
2022/10/19 02:14:31;;;;;;;10.13;6.95;;;;;;;17.47;97.81;101681.59;5078730;28;20075;-63
2022/10/19 02:17:02;;;;;;;11.52;6.90;;;;;;;17.52;98.48;101672.25;5078552;28;20052;-63
2022/10/19 02:19:30;;;;;;;13.73;6.80;;;;;;;17.49;97.45;101670.94;5088450;28;20145;-64
2022/10/19 02:21:57;;;;;;;11.18;7.15;;;;;;;17.46;97.63;101671.59;5089893;28;20044;-64
2022/10/19 02:24:24;;;;;;;10.05;6.75;;;;;;;17.47;97.31;101662.09;5087432;28;20055;-63
2022/10/19 02:26:52;;;;;;;10.98;7.00;;;;;;;17.56;97.85;101657.28;5090277;28;20043;-64
2022/10/19 02:29:20;;;;;;;11.50;7.05;;;;;;;17.49;97.24;101648.63;5082553;28;20064;-63
2022/10/19 02:31:47;;;;;;;12.90;7.35;;;;;;;17.32;98.01;101648.72;5090682;28;20055;-63
2022/10/19 02:34:14;;;;;;;11.90;7.20;;;;;;;17.40;98.42;101647.03;5076309;28;20075;-68
2022/10/19 02:36:42;;;;;;;13.95;7.35;;;;;;;17.37;98.54;101651.31;5090057;28;20040;-63
2022/10/19 02:39:09;;;;;;;10.68;7.32;;;;;;;17.40;97.92;101645.06;5076574;28;20064;-64
2022/10/19 02:42:11;;;;;;;11.63;6.93;;;;;;;17.45;97.97;101644.84;5084856;28;20049;-63
2022/10/19 02:45:01;;;;;;;11.82;6.95;;;;;;;17.32;98.85;101645.09;5092658;28;20403;-64
2022/10/19 02:47:42;;;;;;;12.60;6.72;;;;;;;17.34;98.62;101640.03;5094285;28;20048;-64
2022/10/19 02:50:10;;;;;;;12.32;7.03;;;;;;;17.45;98.01;101635.72;5095695;28;20058;-64
2022/10/19 02:52:39;;;;;;;8.95;6.40;;;;;;;17.47;97.50;101625.06;5107226;28;20071;-63
2022/10/19 02:55:07;;;;;;;17.25;7.00;;;;;;;17.55;97.13;101636.16;5076360;28;20135;-64
2022/10/19 02:57:34;;;;;;;15.00;7.20;;;;;;;17.51;97.40;101621.28;5094993;28;20051;-63
2022/10/19 03:00:05;;;;;;;9.25;6.60;;;;;;;17.46;96.81;101621.47;5096566;28;20048;-63
2022/10/19 03:02:32;;;;;;;12.38;6.70;;;;;;;17.26;98.33;101627.78;5084124;28;20059;-63
2022/10/19 03:04:59;;;;;;;13.00;7.32;;;;;;;17.37;98.47;101626.25;5075920;28;20427;-62
2022/10/19 03:07:26;;;;;;;10.55;7.18;;;;;;;17.44;97.67;101617.34;5083428;28;20055;-62
2022/10/19 03:09:54;;;;;;;12.57;6.88;;;;;;;17.45;97.04;101614.22;5075968;28;20055;-64
2022/10/19 03:12:21;;;;;;;12.20;6.45;;;;;;;17.45;97.22;101611.44;5110887;28;20067;-64
2022/10/19 03:14:48;;;;;;;15.07;6.72;;;;;;;17.52;96.70;101611.75;5096062;28;20070;-63
2022/10/19 03:17:16;;;;;;;12.88;7.15;;;;;;;17.53;96.75;101605.03;5093821;28;20052;-63
2022/10/19 03:19:44;;;;;;;11.35;7.03;;;;;;;17.36;96.84;101599.56;5095461;28;20040;-63
2022/10/19 03:22:12;;;;;;;11.27;7.30;;;;;;;17.30;97.76;101598.09;5086334;28;20049;-64
2022/10/19 03:24:40;;;;;;;12.10;7.10;;;;;;;17.38;97.38;101599.22;5075396;28;20435;-62
2022/10/19 03:27:07;;;;;;;13.07;6.95;;;;;;;17.22;97.33;101587.84;5091998;28;20063;-63
2022/10/19 03:29:34;;;;;;;12.77;7.35;;;;;;;17.11;99.15;101585.78;5094472;28;20055;-63
2022/10/19 03:32:01;;;;;;;13.93;7.28;;;;;;;17.07;99.01;101595.97;5094069;28;20403;-63
2022/10/19 03:34:29;;;;;;;10.40;7.00;;;;;;;17.15;98.93;101583.94;5094914;28;20059;-63
2022/10/19 03:36:58;;;;;;;12.15;7.22;;;;;;;17.17;98.79;101592.78;5093116;28;20048;-64
2022/10/19 03:39:25;;;;;;;11.15;6.93;;;;;;;17.30;98.55;101588.94;5095819;28;20052;-64
2022/10/19 03:41:52;;;;;;;13.18;7.75;;;;;;;17.33;97.83;101583.50;5086585;28;20059;-63
2022/10/19 03:44:19;;;;;;;11.68;7.53;;;;;;;17.32;97.71;101584.66;5093479;28;20056;-64
2022/10/19 03:46:47;;;;;;;11.73;6.82;;;;;;;17.19;98.14;101585.72;5094550;28;20044;-63
2022/10/19 03:49:14;;;;;;;17.70;7.50;;;;;;;17.20;98.48;101581.78;5095742;28;20048;-64
2022/10/19 03:51:42;;;;;;;14.15;7.00;;;;;;;17.07;98.43;101568.91;5088344;28;20059;-64
2022/10/19 03:54:14;;;;;;;16.52;7.35;;;;;;;17.00;99.80;101563.06;5091539;28;20063;-63
2022/10/19 03:56:42;;;;;;;13.45;7.10;;;;;;;17.13;99.28;101566.75;5095162;28;20047;-63
2022/10/19 03:59:12;;;;;;;18.45;8.13;;;;;;;17.23;98.54;101569.16;5096149;28;20063;-63
2022/10/19 04:01:41;;;;;;;9.35;6.63;;;;;;;17.24;97.65;101573.59;5085348;28;20480;-63
2022/10/19 04:04:15;;;;;;;11.52;7.18;;;;;;;17.15;98.81;101582.00;5073542;28;20044;-64
2022/10/19 04:06:45;;;;;;;12.40;7.65;;;;;;;17.10;98.68;101578.59;5079217;28;20520;-64
2022/10/19 04:09:15;;;;;;;10.98;6.28;;;;;;;17.24;98.93;101579.16;5074988;28;20197;-63
2022/10/19 04:11:55;;;;;;;12.25;7.50;;;;;;;17.16;98.17;101575.25;5073191;28;20150;-63
2022/10/19 04:14:24;;;;;;;17.55;7.65;;;;;;;17.07;98.63;101580.06;5095006;28;20056;-64
2022/10/19 04:17:01;;;;;;;14.05;7.75;;;;;;;17.13;98.84;101578.72;5094087;28;20048;-64
2022/10/19 04:19:30;;;;;;;16.10;7.75;;;;;;;17.03;98.73;101579.13;5095121;28;20052;-63
2022/10/19 04:21:57;;;;;;;11.30;7.53;;;;;;;17.04;99.27;101574.34;5090511;28;20566;-64
2022/10/19 04:24:25;;;;;;;16.17;8.00;;;;;;;17.04;99.04;101575.16;5094371;28;20044;-64
2022/10/19 04:26:54;;;;;;;11.95;7.47;;;;;;;17.17;98.96;101574.13;5084028;28;20048;-64
2022/10/19 04:29:23;;;;;;;15.13;7.68;;;;;;;17.15;98.30;101579.22;5074646;28;20045;-64
2022/10/19 04:31:56;;;;;;;16.33;7.13;;;;;;;17.19;98.49;101582.94;5078785;28;20385;-64
2022/10/19 04:34:23;;;;;;;9.25;7.07;;;;;;;17.13;97.99;101573.16;5074076;28;20159;-63
2022/10/19 04:36:51;;;;;;;15.18;8.35;;;;;;;17.06;98.96;101569.25;5082133;28;20047;-63
2022/10/19 04:39:19;;;;;;;14.20;8.10;;;;;;;17.04;98.80;101575.16;5074746;28;20411;-64
2022/10/19 04:41:46;;;;;;;11.88;8.27;;;;;;;17.02;98.94;101573.84;5087680;28;20056;-64
2022/10/19 04:44:14;;;;;;;16.05;7.75;;;;;;;16.91;99.46;101576.25;5093193;28;20062;-64
2022/10/19 04:46:41;;;;;;;17.15;8.90;;;;;;;16.85;99.81;101567.25;5093427;28;20055;-63
2022/10/19 04:49:08;;;;;;;16.50;8.43;;;;;;;16.79;100.00;101568.56;5094340;28;20053;-63
2022/10/19 04:51:36;;;;;;;12.45;8.65;;;;;;;16.86;100.00;101556.91;5088014;28;20056;-63
2022/10/19 04:54:03;;;;;;;14.18;8.40;;;;;;;16.97;100.00;101554.56;5089354;28;20050;-61
2022/10/19 04:56:31;;;;;;;16.27;8.60;;;;;;;16.99;99.46;101543.91;5091769;28;20056;-61
2022/10/19 04:58:59;;;;;;;13.90;8.45;;;;;;;16.89;99.82;101539.56;5093977;28;20056;-62
2022/10/19 05:01:28;;;;;;;11.45;8.13;;;;;;;16.76;100.00;101524.75;5094190;28;20056;-62
2022/10/19 05:03:57;;;;;;;13.18;7.97;;;;;;;16.73;100.00;101528.19;5082808;28;20048;-60
2022/10/19 05:06:25;;;;;;;15.60;7.83;;;;;;;16.68;100.00;101527.56;5108657;28;20491;-64
2022/10/19 05:08:52;;;;;;;21.40;9.43;;;;;;;16.63;100.00;101519.41;5083089;28;20048;-60
2022/10/19 05:11:20;;;;;;;22.55;11.25;;;;;;;16.75;100.00;101527.84;5083355;28;20403;-61
2022/10/19 05:13:47;;;;;;;20.08;9.02;;;;;;;16.50;100.00;101512.91;5092065;28;20055;-62
2022/10/19 05:16:17;;;;;;;16.33;8.88;;;;;;;16.66;100.00;101518.75;5092194;28;20055;-62
2022/10/19 05:18:48;;;;;;;12.43;8.50;;;;;;;16.68;100.00;101525.56;5055842;28;20044;-61
2022/10/19 05:21:17;;;;;;;11.75;7.90;;;;;;;16.86;100.00;101524.34;5088388;28;20057;-62
2022/10/19 05:23:44;;;;;;;12.45;8.25;;;;;;;17.11;99.65;101522.56;5073055;28;20053;-62
2022/10/19 05:26:17;;;;;;;14.18;8.57;;;;;;;17.13;98.82;101516.66;5086860;28;20059;-61
2022/10/19 05:28:48;;;;;;;16.95;9.00;;;;;;;16.99;98.75;101518.88;5093622;28;20052;-61
2022/10/19 05:31:18;;;;;;;14.98;9.02;;;;;;;16.87;99.64;101514.03;5094690;28;20056;-61
2022/10/19 05:33:45;;;;;;;18.00;9.18;;;;;;;16.95;100.00;101521.50;5089237;28;20036;-61
2022/10/19 05:36:18;;;;;;;14.07;8.60;;;;;;;16.94;99.24;101505.97;5072790;28;20048;-60
2022/10/19 05:38:48;;;;;;;13.52;8.23;;;;;;;16.96;99.14;101500.91;5090794;28;20415;-62
2022/10/19 05:41:16;;;;;;;13.80;9.80;;;;;;;16.72;100.00;101503.47;5092239;28;20415;-61
2022/10/19 05:43:44;;;;;;;13.65;9.50;;;;;;;16.66;100.00;101496.47;5092992;28;20294;-61
2022/10/19 05:46:14;;;;;;;18.70;9.68;;;;;;;16.77;100.00;101486.59;5071205;28;20052;-63
2022/10/19 05:48:41;;;;;;;14.35;9.20;;;;;;;16.99;100.00;101485.47;5074872;28;20142;-62
2022/10/19 05:51:11;;;;;;;17.13;9.20;;;;;;;16.93;99.62;101489.63;5091628;28;20044;-62
2022/10/19 05:53:38;;;;;;;27.52;18.05;;;;;;;17.13;99.12;101489.63;5081614;28;20048;-62
2022/10/19 05:56:07;;;;;;;27.33;17.30;;;;;;;17.11;98.54;101491.94;5085761;28;20044;-63
2022/10/19 05:58:35;;;;;;;25.00;12.27;;;;;;;17.15;98.18;101487.34;5083600;28;20385;-63
2022/10/19 06:01:02;;;;;;;15.05;9.30;;;;;;;17.04;97.71;101490.84;5076718;28;20048;-63
2022/10/19 06:03:30;;;;;;;14.57;9.43;;;;;;;17.14;98.14;101493.25;5080557;28;20132;-65
2022/10/19 06:05:57;;;;;;;16.10;9.27;;;;;;;17.00;98.22;101487.13;5085464;28;20522;-64
2022/10/19 06:08:25;;;;;;;21.20;9.35;;;;;;;17.19;97.36;101496.63;5084354;28;20412;-64
2022/10/19 06:10:52;;;;;;;17.77;9.13;;;;;;;17.25;96.77;101500.03;5084249;28;20062;-64
2022/10/19 06:13:19;;;;;;;20.48;9.27;;;;;;;17.26;96.42;101504.47;5105640;28;20122;-64
2022/10/19 06:15:49;;;;;;;14.95;9.27;;;;;;;17.05;96.43;101496.06;5092675;28;20051;-63
2022/10/19 06:18:16;;;;;;;19.25;9.82;;;;;;;16.95;97.44;101493.69;5089223;28;20068;-63
2022/10/19 06:20:44;;;;;;;21.02;8.85;;;;;;;17.12;97.29;101493.56;5097144;28;20062;-63
2022/10/19 06:23:11;;;;;;;18.90;9.30;;;;;;;16.93;97.73;101501.53;5093946;28;20047;-63
2022/10/19 06:25:39;;;;;;;18.60;9.48;;;;;;;16.91;97.89;101500.28;5067399;28;20052;-63
2022/10/19 06:28:06;;;;;;;26.02;9.88;;;;;;;16.85;97.54;101492.13;5071564;28;20044;-62
2022/10/19 06:30:38;;;;;;;18.13;9.68;;;;;;;16.98;97.94;101487.44;5090285;27;20622;-63
2022/10/19 06:33:06;;;;;;;21.25;11.38;;;;;;;17.04;97.83;101497.22;5094204;28;20427;-65
2022/10/19 06:35:34;;;;;;;17.67;10.75;;;;;;;17.05;97.37;101493.28;5079949;28;20048;-63
2022/10/19 06:38:01;;;;;;;18.27;11.93;;;;;;;17.11;97.04;101489.16;5090273;28;20051;-63
2022/10/19 06:40:29;;;;;;;19.02;10.27;;;;;;;17.07;97.22;101485.41;5085468;28;20063;-62
2022/10/19 06:42:57;;;;;;;16.45;9.80;;;;;;;17.06;97.64;101485.75;5087929;28;20075;-63
2022/10/19 06:45:24;;;;;;;22.33;9.55;;;;;;;17.06;97.43;101478.22;5083160;28;20059;-64
2022/10/19 06:47:52;;;;;;;14.32;9.90;;;;;;;17.04;98.11;101486.09;5085819;28;20198;-62
2022/10/19 06:50:19;;;;;;;13.68;9.20;;;;;;;16.94;97.60;101480.09;5065802;28;20048;-63
2022/10/19 06:52:46;;;;;;;13.45;9.90;;;;;;;17.17;96.80;101479.47;5084129;28;20066;-62
2022/10/19 06:55:15;;;;;;;14.60;9.18;;;;;;;17.36;94.90;101490.13;5085668;28;20647;-63
2022/10/19 06:57:44;;;;;;;19.73;9.38;;;;;;;17.08;96.22;101486.22;5094060;28;20043;-62
2022/10/19 07:00:12;;;;;;;13.35;9.40;;;;;;;16.97;97.80;101485.81;5087094;28;20044;-63
2022/10/19 07:02:39;;;;;;;15.90;9.52;;;;;;;17.02;97.53;101491.19;5102725;27;20063;-63
2022/10/19 07:05:06;;;;;;;14.10;8.63;;;;;;;17.01;97.63;101485.97;5096013;28;20044;-64
2022/10/19 07:07:35;;;;;;;15.93;9.70;;;;;;;16.92;98.55;101483.22;5092999;28;20059;-63
2022/10/19 07:10:03;;;;;;;16.38;8.95;;;;;;;16.91;98.24;101483.56;5092446;28;20409;-63
2022/10/19 07:12:30;;;;;;;21.15;8.95;;;;;;;16.92;98.21;101483.22;5090184;28;20141;-62
2022/10/19 07:14:58;;;;;;;16.67;9.32;;;;;;;17.14;97.05;101473.75;5086484;28;20051;-61
2022/10/19 07:17:25;;;;;;;23.65;15.00;;;;;;;17.08;96.58;101470.34;5092476;28;20044;-64
2022/10/19 07:19:53;;;;;;;27.38;10.45;;;;;;;16.92;97.10;101466.53;5094675;28;20044;-61
2022/10/19 07:22:21;;;;;;;20.95;11.85;;;;;;;16.95;96.11;101467.81;5075214;28;20044;-64
2022/10/19 07:24:54;;;;;;;15.77;10.93;;;;;;;16.96;97.26;101459.16;5084358;28;20526;-63
2022/10/19 07:27:21;;;;;;;15.90;8.73;;;;;;;17.05;96.88;101459.09;5093329;28;20048;-64
2022/10/19 07:29:48;;;;;;;13.57;8.95;;;;;;;17.06;97.30;101467.09;5083967;28;20051;-63
2022/10/19 07:32:16;;;;;;;18.70;9.88;;;;;;;17.02;97.05;101466.13;5108442;28;20086;-64
2022/10/19 07:34:43;;;;;;;13.35;8.60;;;;;;;17.04;96.97;101474.97;5087230;28;20059;-64
2022/10/19 07:37:10;;;;;;;20.75;9.73;;;;;;;17.06;96.45;101469.88;5081735;28;20043;-63
2022/10/19 07:39:37;;;;;;;18.55;8.98;;;;;;;17.28;94.77;101479.84;5086039;28;20048;-64
2022/10/19 07:42:05;;;;;;;19.75;8.88;;;;;;;17.43;93.86;101477.28;5085820;28;20055;-63
2022/10/19 07:44:32;;;;;;;13.20;8.35;;;;;;;17.47;92.79;101469.09;5081444;28;20452;-63
2022/10/19 07:47:00;;;;;;;18.02;8.65;;;;;;;17.39;93.57;101461.56;5085968;28;20067;-63
2022/10/19 07:49:27;;;;;;;24.75;10.98;;;;;;;17.42;93.55;101467.28;5086293;28;20589;-63
2022/10/19 07:51:55;;;;;;;17.52;9.82;;;;;;;17.35;94.01;101467.00;5087659;28;20044;-63
2022/10/19 07:54:23;;;;;;;21.27;9.05;;;;;;;17.25;94.48;101461.03;5086488;28;20050;-64
2022/10/19 07:56:50;;;;;;;17.30;9.15;;;;;;;17.45;94.19;101463.00;5083936;28;20531;-63
2022/10/19 07:59:18;;;;;;;13.30;8.68;;;;;;;17.36;94.54;101473.41;5053928;28;20059;-61
2022/10/19 08:01:47;;;;;;;15.90;9.00;;;;;;;17.31;94.52;101470.84;5085943;28;20032;-61
2022/10/19 08:04:15;;;;;;;14.48;9.00;;;;;;;17.35;93.71;101463.41;5087287;28;20063;-64
2022/10/19 08:07:03;;;;;;;16.17;10.05;;;;;;;17.40;93.48;101452.88;5103817;28;20517;-63
2022/10/19 08:09:30;;;;;;;17.67;9.77;;;;;;;17.25;93.88;101467.44;5107393;28;20043;-63
2022/10/19 08:12:18;;;;;;;17.23;9.60;;;;;;;17.51;94.05;101470.84;5102995;28;20048;-65
2022/10/19 08:14:46;;;;;;;20.20;11.25;;;;;;;17.51;93.44;101470.03;5097996;28;20135;-63
2022/10/19 08:17:16;;;;;;;14.00;9.25;;;;;;;17.61;92.74;101470.41;5089591;28;20511;-63
2022/10/19 08:19:45;;;;;;;17.80;9.23;;;;;;;17.85;92.05;101470.50;5095583;28;20036;-64
2022/10/19 08:22:12;;;;;;;13.90;8.93;;;;;;;17.76;91.16;101457.81;5096097;28;20048;-64
2022/10/19 08:24:39;;;;;;;18.40;9.43;;;;;;;17.70;91.70;101453.59;5104794;28;20055;-65
2022/10/19 08:27:07;;;;;;;19.17;9.68;;;;;;;17.55;92.56;101448.69;5103839;28;20046;-63
2022/10/19 08:29:34;;;;;;;15.75;8.48;;;;;;;17.57;92.74;101449.16;5097952;28;20079;-64
2022/10/19 08:32:01;;;;;;;16.42;9.30;;;;;;;17.63;93.17;101445.81;5097817;28;20510;-63
2022/10/19 08:34:29;;;;;;;14.38;8.25;;;;;;;17.55;93.51;101451.47;5105126;28;20039;-65
2022/10/19 08:36:56;;;;;;;20.13;11.02;;;;;;;17.64;94.06;101447.44;5094946;28;20060;-63
2022/10/19 08:39:23;;;;;;;14.80;8.50;;;;;;;17.82;92.41;101450.84;5074107;28;20047;-67
2022/10/19 08:42:09;;;;;;;16.45;9.35;;;;;;;17.81;92.57;101438.09;5100379;28;20062;-63
2022/10/19 08:44:58;;;;;;;18.60;8.38;;;;;;;18.10;91.14;101439.91;5075817;28;20051;-64
2022/10/19 08:47:37;;;;;;;16.52;8.10;;;;;;;18.03;90.55;101434.09;5098168;28;20051;-66
2022/10/19 08:50:17;;;;;;;17.05;8.50;;;;;;;17.88;91.46;101438.34;5102097;28;20060;-64
2022/10/19 08:52:50;;;;;;;15.88;9.15;;;;;;;17.99;91.35;101436.75;5075137;28;20044;-66
2022/10/19 08:55:23;;;;;;;15.15;9.38;;;;;;;17.95;91.01;101419.91;5108026;28;20039;-64
2022/10/19 08:58:19;;;;;;;15.70;8.50;;;;;;;17.85;91.37;101425.91;5094027;28;20408;-64
2022/10/19 09:00:55;;;;;;;16.33;8.95;;;;;;;17.80;91.75;101433.69;5091811;28;20047;-63
2022/10/19 09:03:50;;;;;;;18.50;8.18;;;;;;;18.01;91.08;101430.81;5090438;28;20053;-66
2022/10/19 09:06:28;;;;;;;25.80;11.00;;;;;;;18.14;89.93;101430.50;5091059;28;20376;-67
2022/10/19 09:08:56;;;;;;;17.02;8.95;;;;;;;18.05;90.34;101420.59;5087572;28;20048;-66
2022/10/19 09:11:27;;;;;;;13.15;8.43;;;;;;;18.23;89.61;101422.00;5100960;28;20043;-66
2022/10/19 09:14:02;;;;;;;12.23;7.82;;;;;;;18.18;89.43;101414.69;5102370;28;20048;-67
2022/10/19 09:16:34;;;;;;;19.05;8.20;;;;;;;18.36;88.75;101415.28;5105937;28;20576;-66
2022/10/19 09:19:04;;;;;;;14.55;8.35;;;;;;;18.11;89.18;101406.09;5102304;28;20040;-67
2022/10/19 09:21:34;;;;;;;;;;;;;;;18.12;89.60;101407.72;5104501;28;20415;-67
2022/10/19 09:24:36;;;;;;;16.60;8.10;;;;;;;18.05;90.62;101403.84;5099274;28;19938;-67
2022/10/19 09:27:06;;;;;;;12.35;7.93;;;;;;;18.13;90.06;101408.53;5087886;28;20075;-69
2022/10/19 09:29:41;;;;;;;15.85;8.13;;;;;;;18.31;88.97;101409.91;5104272;28;20048;-64
2022/10/19 09:32:22;;;;;;;11.68;7.80;;;;;;;18.30;88.72;101397.16;5095264;28;20044;-64
2022/10/19 09:34:53;;;;;;;13.55;7.57;;;;;;;18.33;88.62;101410.38;5103410;28;20058;-65
2022/10/19 09:37:20;;;;;;;11.40;7.93;;;;;;;18.37;89.02;101405.75;5106999;28;20070;-64
2022/10/19 09:39:53;;;;;;;12.95;7.43;;;;;;;18.50;87.61;101397.03;5106215;28;20047;-66
2022/10/19 09:42:24;;;;;;;17.70;7.57;;;;;;;18.45;88.23;101407.63;5106343;28;20055;-64
2022/10/19 09:44:53;;;;;;;15.20;8.00;;;;;;;18.58;87.78;101409.25;5110261;28;20415;-65
2022/10/19 09:47:37;;;;;;;13.13;7.32;;;;;;;18.50;87.89;101404.59;5093915;28;20051;-64
2022/10/19 09:50:08;;;;;;;14.68;7.38;;;;;;;18.57;87.47;101402.84;5111685;28;20055;-64
2022/10/19 09:52:35;;;;;;;15.27;7.35;;;;;;;18.51;87.76;101398.69;5091418;28;20052;-63
2022/10/19 09:55:13;;;;;;;12.70;7.43;;;;;;;18.71;87.23;101397.72;5100444;28;20144;-64
2022/10/19 09:57:44;;;;;;;17.02;7.90;;;;;;;18.83;86.80;101389.31;5095960;28;20045;-65
2022/10/19 10:00:19;;;;;;;13.15;7.50;;;;;;;18.89;86.03;101384.31;5105947;28;20059;-65
2022/10/19 10:02:49;;;;;;;12.43;6.70;;;;;;;18.79;85.94;101382.81;5091980;28;20048;-65
2022/10/19 10:05:17;;;;;;;15.80;7.07;;;;;;;18.43;87.80;101390.44;5092205;28;20131;-64
2022/10/19 10:07:45;;;;;;;12.63;7.63;;;;;;;18.61;88.19;101375.06;5096186;28;20059;-64
2022/10/19 10:10:36;;;;;;;13.00;7.53;;;;;;;18.67;86.85;101382.03;5068223;28;20487;-65
2022/10/19 10:13:04;;;;;;;14.98;7.13;;;;;;;18.76;86.37;101374.31;5069515;28;20059;-65
2022/10/19 10:15:42;;;;;;;15.77;6.70;;;;;;;18.61;87.37;101372.28;5071166;28;20051;-64
2022/10/19 10:18:14;;;;;;;13.85;7.45;;;;;;;18.83;86.53;101366.16;5087777;28;20044;-64
2022/10/19 10:20:59;;;;;;;12.75;6.75;;;;;;;18.67;86.22;101368.88;5089520;28;20498;-66
2022/10/19 10:23:34;;;;;;;12.55;6.65;;;;;;;18.79;85.77;101366.06;5087353;27;20070;-64
2022/10/19 10:26:04;;;;;;;12.93;6.18;;;;;;;18.78;85.46;101366.41;5086732;28;20480;-65
2022/10/19 10:28:31;;;;;;;17.33;7.55;;;;;;;18.92;85.38;101364.88;5090814;28;20044;-65
2022/10/19 10:31:00;;;;;;;9.85;6.20;;;;;;;19.05;84.84;101349.72;5092277;28;20047;-65
2022/10/19 10:33:29;;;;;;;11.65;6.40;;;;;;;19.12;84.44;101353.88;5100904;28;20055;-65
2022/10/19 10:36:12;;;;;;;13.00;6.82;;;;;;;19.17;84.30;101346.06;5094084;28;20040;-64
2022/10/19 10:38:45;;;;;;;12.27;6.82;;;;;;;19.20;84.54;101341.72;5095385;28;20047;-67
2022/10/19 10:41:19;;;;;;;14.18;7.00;;;;;;;19.21;83.37;101346.97;5084873;28;20056;-66
2022/10/19 10:44:05;;;;;;;16.80;7.72;;;;;;;19.23;83.75;101344.59;5090104;28;20048;-64
2022/10/19 10:46:56;;;;;;;16.17;6.93;;;;;;;19.44;83.05;101347.25;5088335;28;20522;-64
2022/10/19 10:49:35;;;;;;;12.23;6.85;;;;;;;19.24;83.41;101337.06;5084359;28;20539;-66
2022/10/19 10:52:16;;;;;;;12.27;6.20;;;;;;;19.19;82.75;101331.72;5072380;28;20043;-65
2022/10/19 10:54:57;;;;;;;12.13;6.20;;;;;;;19.37;82.20;101328.28;5091848;28;20048;-64
2022/10/19 10:57:29;;;;;;;12.70;6.18;;;;;;;19.65;80.79;101312.25;5071554;28;20043;-67
2022/10/19 11:00:14;;;;;;;12.48;6.30;;;;;;;19.73;80.13;101314.09;5067169;28;20048;-66
2022/10/19 11:03:03;;;;;;;9.57;6.53;;;;;;;19.71;79.70;101318.41;5085801;28;20044;-65
2022/10/19 11:05:33;;;;;;;14.98;6.63;;;;;;;19.85;79.58;101310.38;5093337;28;20056;-64
2022/10/19 11:08:20;;;;;;;13.40;6.85;;;;;;;19.79;80.29;101298.66;5051175;28;20436;-65
2022/10/19 11:11:05;;;;;;;12.55;6.03;;;;;;;19.75;80.38;101306.13;5083588;28;20055;-65
2022/10/19 11:13:48;;;;;;;13.13;5.82;;;;;;;19.86;79.64;101300.81;5071937;28;20055;-63
2022/10/19 11:16:17;;;;;;;12.35;5.82;;;;;;;19.92;79.90;101293.78;5052368;28;20071;-65
2022/10/19 11:18:53;;;;;;;12.90;5.95;;;;;;;19.94;79.20;101294.22;5090695;28;20055;-64
2022/10/19 11:21:28;;;;;;;10.63;5.18;;;;;;;20.05;78.64;101282.13;5085516;28;20059;-65
2022/10/19 11:24:17;;;;;;;10.52;5.82;;;;;;;20.21;77.64;101270.13;5085544;28;20498;-64
2022/10/19 11:26:48;;;;;;;11.93;6.13;;;;;;;19.88;78.77;101257.34;5088512;28;20040;-65
2022/10/19 11:29:33;;;;;;;;;;;;;;;19.86;79.41;101250.47;5091975;28;20048;-62
2022/10/19 11:32:00;;;;;;;11.95;5.90;;;;;;;19.88;79.29;101240.56;5090383;28;19920;-63
2022/10/19 11:34:37;;;;;;;10.60;5.50;;;;;;;19.83;79.89;101232.47;5087438;28;20118;-63